LFKF/FSC METAR and TAF weather

Enter ICAO airport designator
Station Type Date Time Source
LFKF METAR 2020/09/27 00:30 UTC NOAA

LFKF 270030Z AUTO 26004KT 220V310 7000 RA FEW031/// BKN070/// OVC084/// ///CB 13/11 Q1004


Station Type Date Time Source
LFKF Decoded METAR 2020/09/27 00:30 UTC NOAA

Figari, France (LFKF) 41-30N 009-06E 23M
Sep 26, 2020 - 08:30 PM EDT / 2020.09.27 0030 UTC
Wind: from the W (260 degrees) at 5 MPH (4 KT) (direction variable):0
Visibility: 4 mile(s):0
Sky conditions: overcast
Weather: rain; Cumulonimbus clouds observed
Temperature: 55 F (13 C)
Dew Point: 51 F (11 C)
Relative Humidity: 87%
Pressure (altimeter): 29.65 in. Hg (1004 hPa)
ob: LFKF 270030Z AUTO 26004KT 220V310 7000 RA FEW031/// BKN070/// OVC084/// ///CB 13/11 Q1004
cycle: 0

Station Type Date Time Source
LFKF TAF 2020/09/26 21:36 UTC NOAA

TAF TAF LFKF 262130Z 2621/2715 CNL

Example: see airport list